Aviation Digital Data Service (ADDS)

Output produced by METARs form (1157 UTC 26 March 2019)
found at http://www.aviationweather.gov/metar/data/
 
DAUA 261100Z 21012KT 6000 FEW046 SCT133 29/12 Q1013
TAF DAUA 261100Z 2612/2712 22014KT 6000 FEW046 SCT100 
     PROB30 
     TEMPO 2612/2618 22015G25KT 4000 DRSA FEW040TCU 
     BECMG 2615/2619 28012KT 
     PROB40 
     TEMPO 2613/2623 28020G30KT 4000 TSRA FEW033CB SCT040TCU 
     BECMG 2708/2712 18008KT
       
DABB 261130Z 35011KT 9999 FEW026 SCT033 19/09 Q1015
TAF DABB 261100Z 2612/2712 34014KT 8000 SCT016 SCT033 
     PROB30 
     TEMPO 2612/2618 FEW023TCU 
     PROB30 
     TEMPO 1622/1706 2000 -DZ BR BKN008
       
DABT 261100Z 02005KT 8000 SCT020 15/07 Q1017
TAF DABT 261100Z 2612/2712 36014KT 9999 FEW020TCU SCT030 
     TEMPO 2614/2703 02020G30KT 2000 TSRA FEW015CB BKN020
       
DAOR 261100Z 12005KT 8000 SCT033 22/M01 Q1013
TAF DAOR 261100Z 2612/2621 12012KT 9999 FEW033 SCT100 
     PROB40 2612/2615 12022KT 3000 DRDU FEW030TCU 
     PROB40 
     TEMPO 2612/2620 5000 -TSRA FEW033CB
       
DAAE 261100Z 01006KT 7000 SCT020 BKN040 15/11 Q1019
TAF DAAE 261100Z 2612/2712 04014KT 7000 SCT016 SCT030 
     PROB30 
     TEMPO 2612/2618 FEW023TCU 
     BECMG 2618/2621 32006KT 
     PROB30 
     TEMPO 2621/2706 2000 -DZ BR BKN008
       
DAUB 261100Z 18005KT 9999 SCT040 SCT100 19/08 Q1016
TAF DAUB 261100Z 2612/2712 20012KT 9999 FEW033TCU SCT040 
     PROB30 
     TEMPO 2612/2622 4000 -TSRA FEW030CB BKN033 
     BECMG 2618/2620 33015KT 
     PROB30 
     TEMPO 2700/2706 32020G30KT 4000 -TSRA FEW030CB
       
DATM 261100Z 08014KT CAVOK 31/18 Q1015
TAF DATM 261100Z 2612/2621 08012KT 8000 NSC 
     PROB30 
     TEMPO 2612/2615 08022KT 
     BECMG 2617/2621 30008KT
       
DAAD 261100Z 18002KT 8000 SCT030 SCT033 18/06 Q1016
TAF DAAD 261100Z 2612/2621 20008KT 8000 SCT040 SCT100 
     TEMPO 2613/2618 32012KT 
     PROB30 
     TEMPO 2613/2615 VRB15G25KT FEW023TCU
       
DAOI 261100Z 08014KT 9999 FEW026 SCT100 20/10 Q1015
TAF DAOI 261100Z 2612/2712 08014KT 9999 FEW026 SCT100 
     BECMG 2614/2616 08012G24KT 8000 FEW026TCU SCT026 
     PROB30 
     TEMPO 2623/2708 -TSRA FEW026CB BKN026
       
DABC 261130Z 33009KT 9999 SCT023 SCT100 13/08 Q1017
TAF DABC 261100Z 2612/2712 34014KT 8000 SCT016 SCT030 
     PROB30 
     TEMPO 2612/2621 FEW023CB 
     BECMG 2620/2622 22006KT 
     PROB30 
     TEMPO 2700/2709 3000 -DZ BR SCT008
       
DAAG 261130Z 08024KT 9999 FEW023 BKN086 17/10 Q1019
TAF DAAG 261100Z 2612/2712 08020KT 9999 FEW026 SCT100 
     PROB40 
     TEMPO 2612/2618 08020G30KT 
     PROB30 
     TEMPO 2612/2620 5000 -TSRA FEW026CB 
     BECMG 2620/2623 24008KT 
     BECMG 2708/1712 10012KT
       
DAAJ 261100Z 27004KT CAVOK 25/M01 Q1022
TAF DAAJ 261100Z 2612/2712 26008KT CAVOK 
     BECMG 2614/2618 32010KT 
     BECMG 2620/2623 18008KT
       
DAUE 261100Z 12014KT 9999 SCT040 27/01 Q1015
DAUO 261100Z 21011KT 8000 FEW033 SCT200 26/08 Q1016
TAF DAUO 261100Z 2612/2621 22012KT 8000 FEW033 SCT100 
     PROB30 
     TEMPO 2612/2615 22015G25KT 4000 DRSA FEW030TCU 
     BECMG 2614/2617 04010KT
       
DAUG 261100Z 20017KT 9999 SCT040 OVC090 21/03 Q1017
TAF DAUG 261100Z 2612/2712 22008KT 9999 SCT040 BKN100 
     PROB30 
     TEMPO 2612/2617 08015G25KT 5000 -TSRA FEW023TCU 
     BECMG 2614/2618 08012KT 
     PROB40 
     TEMPO 2614/2623 10020G30KT 5000 TSRA FEW040CB
       
DAUH 261130Z 13008KT 9999 FEW040 BKN233 26/01 Q1015
TAF DAUH 261100Z 2612/2712 16010KT 8000 FEW040 SCT10 
     PROB30 
     TEMPO 2612/2617 FEW040TCU 
     BECMG 2614/2618 01014KT 
     PROB30 
     TEMPO 2615/2623 01015G30KT 5000 -TSRA FEW040CB 
     BECMG 2702/2706 08008KT
       
DAAP 261100Z 14004KT CAVOK 29/02 Q1018
TAF DAAP 261100Z 2612/2621 18008KT CAVOK 
     TEMPO 2613/2620 06010KT
       
DAUZ 261100Z 12007KT 090V150 CAVOK 24/M03 Q1019
TAF DAUZ 261100Z 2612/2712 11008KT CAVOK 
     TEMPO 2612/2618 18012KT 
     PROB30 
     TEMPO 2614/2622 FEW040TCU 
     BECMG 2706/2710 22014KT
       
DAUI 261100Z 20008KT CAVOK 29/09 Q1015
TAF DAUI 261100Z 2612/2712 18008KT 8000 NSC 
     BECMG 2612/2617 22014KT 
     PROB30 
     TEMPO 2612/2618 22015G25KT 4000 DRSA FEW040TCU 
     PROB40 2614/2622 22020G30KT 1500 BLSA FEW040CB 
     PROB40 
     TEMPO 2615/2622 22015G25KT 5000 -TSRA FEW036CB
       
DAAV 261100Z 35006KT 9999 SCT020 BKN033 15/07 Q1018
TAF DAAV 261100Z 2612/2712 36014KT 9999 SCT016 SCT026 
     PROB30 
     TEMPO 2612/2618 FEW023TCU 
     BECMG 2620/2623 26006KT 
     PROB30 
     TEMPO 2702/2708 2000 -DZ BR BKN008
       
DAUL 261000Z 25014KT 9999 BKN030 20/04 Q1017
TAF DAUL 261100Z 2612/2621 26012KT 9999 SCT033 BKN080 
     PROB40 
     TEMPO 2612/2615 FEW026TCU 
     PROB30 
     TEMPO 2612/2618 26015G25KT 5000 -TSRA FEW030CB
       
DAOV 261100Z 08005KT CAVOK 24/06 Q1014
TAF DAOV 261100Z 2612/2621 VRB02KT 
     BECMG 2612/2614 04012KT
       
DAAY 261100Z 19018KT 6000 SCT033 SCT100 20/04 Q1017
TAF DAAY 261100Z 2612/2621 19018KT 6000 SCT033 SCT100
       
DAOO 261130Z 36014KT 6000 FEW016 SCT100 BKN233 20/13 Q1013
TAF DAOO 261100Z 2612/2712 01011KT 6000 FEW016 SCT100 BKN233 
     BECMG 2614/2616 04020KT 8000 SCT023 FEW026TCU 
     BECMG 2617/2619 04020G40KT 
     PROB30 
     TEMPO 2622/2702 -TSRA FEW023CB
       
DAOL 261100Z 06012KT 5000 SCT023 BKN200 19/12 Q1014
DAUU 261100Z 15014KT 9999 SCT040 SCT100 25/M00 Q1015
TAF DAUU 261100Z 2612/2621 18012KT 9999 SCT040 SCT100 
     PROB30 
     TEMPO 2612/2615 18015G25KT FEW040TCU
       
DAAS 261100Z 06005KT 9999 FEW010 SCT026 12/07 Q1017
TAF DAAS 261100Z 2612/2712 02014KT 9999 FEW010 SCT026 
     PROB30 
     TEMPO 2612/2620 FEW016CB 
     BECMG 2620/2622 VRB02KT 
     PROB30 
     TEMPO 2700/2708 2000 -DZ BR BKN008
       
DAAT 261130Z 27006KT 240V340 CAVOK 24/03 Q1023
TAF DAAT 261100Z 2612/2712 31010KT 8000 NSC 
     PROB30 
     TEMPO 2612/2620 SCT040TCU 
     BECMG 2700/2703 08010KT 
     BECMG 2703/2707 20008KT
       
DABS 261100Z 33006KT 9999 SCT033 17/05 Q1016
TAF DABS 261100Z 2612/2712 34014KT 9999 FEW026TCU SCT033 
     TEMPO 2614/2703 02020G30KT 4000 -TSRA FEW015CB
       
DAOB 261100Z 08007KT 8000 FEW030 SCT093 17/09 Q1016
TAF DAOB 261100Z 2612/2712 18008KT 8000 FEW030 SCT100 
     PROB40 
     TEMPO 2612/2618 18015G25KT 5000 -TSRA FEW026CB 
     BECMG 2614/2618 10012KT 
     BECMG 2620/2623 22008KT
       
DAFH 261100Z 00000KT 9999 FEW026 BKN030 18/08 Q1018 RERA
TAF DAFH 261100Z 2612/2621 VRB02KT 9999 SCT040 SCT100 
     PROB30 
     TEMPO 2612/2615 VRB15G25KT 5000 -TSRA FEW026CB 
     BECMG 2614/2617 22010KT
       
DAUT 261100Z 19017KT 5000 NSC 29/08 Q1012
TAF DAUT 261100Z 2612/2621 14014KT 5000 DRSA FEW046 SCT100 
     PROB40 
     TEMPO 2612/2615 14024KT 3000 DRSA 
     PROB30 
     TEMPO 2614/2618 14015G25KT 5000 -TSRA FEW036CB
       
DAOF 261100Z 26011KT 8000 NSC 24/05 Q1009
TAF DAOF 261100Z 2612/2621 26011KT 8000 FEW046 SCT100 
     PROB40 
     TEMPO 2612/2615 4000 HZ 
     PROB40 
     TEMPO 2613/2618 12022KT 3000 DRSA FEW026TCU
       
DAON 261130Z VRB02KT 9999 SCT030 SCT100 20/11 Q1012
TAF DAON 261100Z 2612/2712 VRB02KT 9999 SCT030 SCT100 
     BECMG 2613/2615 35015KT 
     PROB40 
     TEMPO 2618/2703 5000 -TSRA FEW023CB
       
DAUK 261100Z 20010KT 8000 FEW046 SCT100 26/02 Q1015
TAF DAUK 261100Z 2612/2621 20010KT 8000 SCT040 SCT100 
     PROB30 
     TEMPO 2612/2615 20015G25KT 3000 DRSA FEW030TCU